Airport ICAO


18:42 UTC

23°C

Broken clouds


An affordable passengers' Moving Map for your aircraft. Made for the iPad and the iPhone
More information here

LFMN Cote D'Azur


Nice FRANCE   VFR


METAR LFMN 171830Z 07010KT 9999 BKN073 23/15 Q1014 NOSIG 0h12min

TAF AMD LFMN 171730Z 1717/1821 10012KT 9999 BKN060 BECMG 1717/1719 34010KT TEMPO 1718/1724 4000 RA BECMG 1808/1810 10010KT BECMG 1816/1818 35010KT 1h12min





NOTAMS

OPEN